首页
METAR-TAF:

METAR-TAF

机场 :

伊萬諾-弗蘭科夫斯克國際機場

伊万诺-弗兰科夫斯克, 乌克兰

纬度: 48-53-03N, 经度: 024-41-10E, 海拔: 280米

当前天气观测

该预报发布于1小时和30分钟前的19:30 UTC
静风
温度 13°C
湿度 77%
气压 1017 hPa
能见度10公里或以上
1500米以下无云,无积雨云

METAR: UKLI 231930Z 00000MPS CAVOK 13/09 Q1017 R10/090070 NOSIG

时间: 00:00 (21:00 UTC)

预报

该预报发布于3小时和59分钟前的17:01 UTC
预报有效从23日的 18点(UTC)到 24日的 03点(UTC)
风速8节,风向东转东北
能见度10公里或以上
多云层高于3000英尺
短暂存在
从 23日的 18点(UTC)到 23日的 21点(UTC)
能見度: 2100
多云层高于2000英尺
轻雾

TAF: UKLI 231701Z 2318/2403 07004MPS 9999 BKN030 TEMPO 2318/2321 2100 BR BKN020

超过4000个机场的气象观测和天气预报(METAR&TAF报告)。

可查询的气象台以黄色和红色小点在地图上表示。

将鼠标移到小点上方,可查看气象台名称。

然后点击查看天气观测和预报。

如需切换地图:点击带黑十字的绿色按钮放大地图;点击带横线的绿色按钮缩小地图;或者点击绿色箭头查看邻近地区的地图。


METAR-TAF: